Terminal Aerodrome Forecast
Issued by NWS

Home | Current Version | Previous Version | Text Only | Print | Product List | Glossary On
Versions: 1 2 3 4 5 6 7 8 9 10 11 12 13 14 15 16 17 18 19 20 21
000
FTUS41 KPHI 241120
TAFPNE
TAF
KPNE 241120Z 2412/2512 32006KT P6SM SKC
     FM241400 36009KT P6SM SKC
     FM242000 VRB04KT P6SM SKC
     FM250100 17007KT P6SM SKC
     FM250300 21004KT P6SM SKC=

USA.gov is the U.S. government's official web portal to all federal, state and local government web resources and services.